sensor_id;sensor_type;location;lat;lon;timestamp;temperature;humidity
3998;DHT22;61314;53.444;9.902;2022-07-21T00:01:09;20.10;99.90
3998;DHT22;61314;53.444;9.902;2022-07-21T00:03:36;20.10;99.90
3998;DHT22;61314;53.444;9.902;2022-07-21T00:06:04;20.00;99.90
3998;DHT22;61314;53.444;9.902;2022-07-21T00:08:31;20.00;99.90
3998;DHT22;61314;53.444;9.902;2022-07-21T00:10:58;19.90;99.90
3998;DHT22;61314;53.444;9.902;2022-07-21T00:13:25;19.90;99.90
3998;DHT22;61314;53.444;9.902;2022-07-21T00:15:52;19.90;99.90
3998;DHT22;61314;53.444;9.902;2022-07-21T00:18:20;19.80;99.90
3998;DHT22;61314;53.444;9.902;2022-07-21T00:20:47;19.90;99.90
3998;DHT22;61314;53.444;9.902;2022-07-21T00:23:14;19.80;99.90
3998;DHT22;61314;53.444;9.902;2022-07-21T00:25:41;19.90;99.90
3998;DHT22;61314;53.444;9.902;2022-07-21T00:28:08;19.70;99.90
3998;DHT22;61314;53.444;9.902;2022-07-21T00:30:35;19.70;99.90
3998;DHT22;61314;53.444;9.902;2022-07-21T00:33:02;19.60;99.90
3998;DHT22;61314;53.444;9.902;2022-07-21T00:35:29;19.60;99.90
3998;DHT22;61314;53.444;9.902;2022-07-21T00:37:56;19.60;99.90
3998;DHT22;61314;53.444;9.902;2022-07-21T00:40:24;19.90;99.90
3998;DHT22;61314;53.444;9.902;2022-07-21T00:42:51;19.70;99.90
3998;DHT22;61314;53.444;9.902;2022-07-21T00:45:18;19.50;99.90
3998;DHT22;61314;53.444;9.902;2022-07-21T00:47:44;19.50;99.90
3998;DHT22;61314;53.444;9.902;2022-07-21T00:50:17;19.50;99.90
3998;DHT22;61314;53.444;9.902;2022-07-21T00:52:45;19.50;99.90
3998;DHT22;61314;53.444;9.902;2022-07-21T00:55:14;19.40;99.90
3998;DHT22;61314;53.444;9.902;2022-07-21T00:57:42;19.40;99.90
3998;DHT22;61314;53.444;9.902;2022-07-21T01:00:13;19.40;99.90
3998;DHT22;61314;53.444;9.902;2022-07-21T01:02:41;19.30;99.90
3998;DHT22;61314;53.444;9.902;2022-07-21T01:05:09;19.30;99.90
3998;DHT22;61314;53.444;9.902;2022-07-21T01:07:44;19.30;99.90
3998;DHT22;61314;53.444;9.902;2022-07-21T01:10:13;19.20;99.90
3998;DHT22;61314;53.444;9.902;2022-07-21T01:12:41;19.20;99.90
3998;DHT22;61314;53.444;9.902;2022-07-21T01:15:10;19.20;99.90
3998;DHT22;61314;53.444;9.902;2022-07-21T01:17:37;19.10;99.90
3998;DHT22;61314;53.444;9.902;2022-07-21T01:20:07;19.10;99.90
3998;DHT22;61314;53.444;9.902;2022-07-21T01:22:36;19.20;99.90
3998;DHT22;61314;53.444;9.902;2022-07-21T01:25:04;19.10;99.90
3998;DHT22;61314;53.444;9.902;2022-07-21T01:27:31;18.80;99.90
3998;DHT22;61314;53.444;9.902;2022-07-21T01:32:26;19.00;99.90
3998;DHT22;61314;53.444;9.902;2022-07-21T01:34:53;19.00;99.90
3998;DHT22;61314;53.444;9.902;2022-07-21T01:37:22;18.90;99.90
3998;DHT22;61314;53.444;9.902;2022-07-21T01:42:36;18.90;99.90
3998;DHT22;61314;53.444;9.902;2022-07-21T01:47:32;18.80;99.90
3998;DHT22;61314;53.444;9.902;2022-07-21T01:49:59;18.80;99.90
3998;DHT22;61314;53.444;9.902;2022-07-21T01:52:26;18.80;99.90
3998;DHT22;61314;53.444;9.902;2022-07-21T01:54:53;18.70;99.90
3998;DHT22;61314;53.444;9.902;2022-07-21T01:57:20;18.70;99.90
3998;DHT22;61314;53.444;9.902;2022-07-21T01:59:46;18.70;99.90
3998;DHT22;61314;53.444;9.902;2022-07-21T02:02:13;18.70;99.90
3998;DHT22;61314;53.444;9.902;2022-07-21T02:04:40;18.70;99.90
3998;DHT22;61314;53.444;9.902;2022-07-21T02:07:10;18.60;99.90
3998;DHT22;61314;53.444;9.902;2022-07-21T02:09:38;18.60;99.90
3998;DHT22;61314;53.444;9.902;2022-07-21T02:12:05;18.60;99.90
3998;DHT22;61314;53.444;9.902;2022-07-21T02:14:32;18.60;99.90
3998;DHT22;61314;53.444;9.902;2022-07-21T02:16:59;18.60;99.90
3998;DHT22;61314;53.444;9.902;2022-07-21T02:19:26;18.60;99.90
3998;DHT22;61314;53.444;9.902;2022-07-21T02:21:54;18.50;99.90
3998;DHT22;61314;53.444;9.902;2022-07-21T02:24:20;18.50;99.90
3998;DHT22;61314;53.444;9.902;2022-07-21T02:26:47;18.50;99.90
3998;DHT22;61314;53.444;9.902;2022-07-21T02:29:14;18.40;99.90
3998;DHT22;61314;53.444;9.902;2022-07-21T02:31:41;18.50;99.90
3998;DHT22;61314;53.444;9.902;2022-07-21T02:34:08;18.50;99.90
3998;DHT22;61314;53.444;9.902;2022-07-21T02:36:35;18.40;99.90
3998;DHT22;61314;53.444;9.902;2022-07-21T02:39:02;18.40;99.90
3998;DHT22;61314;53.444;9.902;2022-07-21T02:41:29;18.40;99.90
3998;DHT22;61314;53.444;9.902;2022-07-21T02:43:56;18.30;99.90
3998;DHT22;61314;53.444;9.902;2022-07-21T02:46:23;18.30;99.90
3998;DHT22;61314;53.444;9.902;2022-07-21T02:48:50;18.30;99.90
3998;DHT22;61314;53.444;9.902;2022-07-21T02:51:17;18.30;99.90
3998;DHT22;61314;53.444;9.902;2022-07-21T02:53:44;18.30;99.90
3998;DHT22;61314;53.444;9.902;2022-07-21T02:56:12;18.30;99.90
3998;DHT22;61314;53.444;9.902;2022-07-21T02:58:39;18.20;99.90
3998;DHT22;61314;53.444;9.902;2022-07-21T03:01:06;18.20;99.90
3998;DHT22;61314;53.444;9.902;2022-07-21T03:03:36;18.30;99.90
3998;DHT22;61314;53.444;9.902;2022-07-21T03:06:04;18.20;99.90
3998;DHT22;61314;53.444;9.902;2022-07-21T03:08:31;18.20;99.90
3998;DHT22;61314;53.444;9.902;2022-07-21T03:10:58;18.20;99.90
3998;DHT22;61314;53.444;9.902;2022-07-21T03:13:25;18.20;99.90
3998;DHT22;61314;53.444;9.902;2022-07-21T03:15:52;18.10;99.90
3998;DHT22;61314;53.444;9.902;2022-07-21T03:18:20;18.20;99.90
3998;DHT22;61314;53.444;9.902;2022-07-21T03:20:47;18.10;99.90
3998;DHT22;61314;53.444;9.902;2022-07-21T03:23:14;18.10;99.90
3998;DHT22;61314;53.444;9.902;2022-07-21T03:25:41;18.20;99.90
3998;DHT22;61314;53.444;9.902;2022-07-21T03:28:08;18.20;99.90
3998;DHT22;61314;53.444;9.902;2022-07-21T03:30:36;18.20;99.90
3998;DHT22;61314;53.444;9.902;2022-07-21T03:33:03;18.20;99.90
3998;DHT22;61314;53.444;9.902;2022-07-21T03:35:30;18.20;99.90
3998;DHT22;61314;53.444;9.902;2022-07-21T03:37:59;18.20;99.90
3998;DHT22;61314;53.444;9.902;2022-07-21T03:40:29;18.20;99.90
3998;DHT22;61314;53.444;9.902;2022-07-21T03:43:00;18.30;99.90
3998;DHT22;61314;53.444;9.902;2022-07-21T03:45:28;18.20;99.90
3998;DHT22;61314;53.444;9.902;2022-07-21T03:47:59;18.30;99.90
3998;DHT22;61314;53.444;9.902;2022-07-21T03:50:27;18.30;99.90
3998;DHT22;61314;53.444;9.902;2022-07-21T03:52:54;18.30;99.90
3998;DHT22;61314;53.444;9.902;2022-07-21T03:55:21;18.30;99.90
3998;DHT22;61314;53.444;9.902;2022-07-21T03:57:57;18.40;99.90
3998;DHT22;61314;53.444;9.902;2022-07-21T04:00:30;18.40;99.90
3998;DHT22;61314;53.444;9.902;2022-07-21T04:02:58;18.40;99.90
3998;DHT22;61314;53.444;9.902;2022-07-21T04:05:26;18.40;99.90
3998;DHT22;61314;53.444;9.902;2022-07-21T04:07:54;18.40;99.90
3998;DHT22;61314;53.444;9.902;2022-07-21T04:10:23;18.40;99.90
3998;DHT22;61314;53.444;9.902;2022-07-21T04:12:55;18.40;99.90
3998;DHT22;61314;53.444;9.902;2022-07-21T04:15:22;18.40;99.90
3998;DHT22;61314;53.444;9.902;2022-07-21T04:17:50;18.40;99.90
3998;DHT22;61314;53.444;9.902;2022-07-21T04:20:18;18.50;99.90
3998;DHT22;61314;53.444;9.902;2022-07-21T04:22:46;18.50;99.90
3998;DHT22;61314;53.444;9.902;2022-07-21T04:25:14;18.50;99.90
3998;DHT22;61314;53.444;9.902;2022-07-21T04:27:41;18.60;99.90
3998;DHT22;61314;53.444;9.902;2022-07-21T04:30:10;18.50;99.90
3998;DHT22;61314;53.444;9.902;2022-07-21T04:32:37;18.50;99.90
3998;DHT22;61314;53.444;9.902;2022-07-21T04:35:05;18.60;99.90
3998;DHT22;61314;53.444;9.902;2022-07-21T04:37:33;18.60;99.90
3998;DHT22;61314;53.444;9.902;2022-07-21T04:40:01;18.60;99.90
3998;DHT22;61314;53.444;9.902;2022-07-21T04:42:28;18.70;99.90
3998;DHT22;61314;53.444;9.902;2022-07-21T04:44:55;18.70;99.90
3998;DHT22;61314;53.444;9.902;2022-07-21T04:47:23;18.70;99.90
3998;DHT22;61314;53.444;9.902;2022-07-21T04:49:50;18.70;99.90
3998;DHT22;61314;53.444;9.902;2022-07-21T04:52:16;18.70;99.90
3998;DHT22;61314;53.444;9.902;2022-07-21T04:54:44;18.80;99.90
3998;DHT22;61314;53.444;9.902;2022-07-21T04:57:11;18.80;99.90
3998;DHT22;61314;53.444;9.902;2022-07-21T04:59:38;18.80;99.90
3998;DHT22;61314;53.444;9.902;2022-07-21T05:02:05;18.80;99.90
3998;DHT22;61314;53.444;9.902;2022-07-21T05:04:32;18.90;99.90
3998;DHT22;61314;53.444;9.902;2022-07-21T05:06:59;18.80;99.90
3998;DHT22;61314;53.444;9.902;2022-07-21T05:09:26;18.90;99.90
3998;DHT22;61314;53.444;9.902;2022-07-21T05:11:53;18.90;99.90
3998;DHT22;61314;53.444;9.902;2022-07-21T05:14:20;18.90;99.90
3998;DHT22;61314;53.444;9.902;2022-07-21T05:16:47;18.90;99.90
3998;DHT22;61314;53.444;9.902;2022-07-21T05:19:13;18.90;99.90
3998;DHT22;61314;53.444;9.902;2022-07-21T05:21:40;19.00;99.90
3998;DHT22;61314;53.444;9.902;2022-07-21T05:24:07;19.00;99.90
3998;DHT22;61314;53.444;9.902;2022-07-21T05:26:35;19.00;99.90
3998;DHT22;61314;53.444;9.902;2022-07-21T05:29:03;19.00;99.90
3998;DHT22;61314;53.444;9.902;2022-07-21T05:31:30;19.00;99.90
3998;DHT22;61314;53.444;9.902;2022-07-21T05:33:57;19.00;99.90
3998;DHT22;61314;53.444;9.902;2022-07-21T05:36:24;19.00;99.90
3998;DHT22;61314;53.444;9.902;2022-07-21T05:38:51;19.00;99.90
3998;DHT22;61314;53.444;9.902;2022-07-21T05:41:18;19.00;99.90
3998;DHT22;61314;53.444;9.902;2022-07-21T05:43:45;19.00;99.90
3998;DHT22;61314;53.444;9.902;2022-07-21T05:46:12;19.00;99.90
3998;DHT22;61314;53.444;9.902;2022-07-21T05:48:39;19.00;99.90
3998;DHT22;61314;53.444;9.902;2022-07-21T05:51:07;19.00;99.90
3998;DHT22;61314;53.444;9.902;2022-07-21T05:53:41;19.00;99.90
3998;DHT22;61314;53.444;9.902;2022-07-21T05:56:08;19.00;99.90
3998;DHT22;61314;53.444;9.902;2022-07-21T05:58:35;19.00;99.90
3998;DHT22;61314;53.444;9.902;2022-07-21T06:01:02;19.00;99.90
3998;DHT22;61314;53.444;9.902;2022-07-21T06:03:36;19.00;99.90
3998;DHT22;61314;53.444;9.902;2022-07-21T06:06:04;19.00;99.90
3998;DHT22;61314;53.444;9.902;2022-07-21T06:08:32;19.00;99.90
3998;DHT22;61314;53.444;9.902;2022-07-21T06:10:59;19.00;99.90
3998;DHT22;61314;53.444;9.902;2022-07-21T06:13:26;19.00;99.90
3998;DHT22;61314;53.444;9.902;2022-07-21T06:15:53;19.00;99.90
3998;DHT22;61314;53.444;9.902;2022-07-21T06:18:20;19.00;99.90
3998;DHT22;61314;53.444;9.902;2022-07-21T06:20:49;19.00;99.90
3998;DHT22;61314;53.444;9.902;2022-07-21T06:23:16;19.00;99.90
3998;DHT22;61314;53.444;9.902;2022-07-21T06:25:44;19.00;99.90
3998;DHT22;61314;53.444;9.902;2022-07-21T06:28:11;19.00;99.90
3998;DHT22;61314;53.444;9.902;2022-07-21T06:30:38;19.00;99.90
3998;DHT22;61314;53.444;9.902;2022-07-21T06:33:05;19.00;99.90
3998;DHT22;61314;53.444;9.902;2022-07-21T06:35:32;19.00;99.90
3998;DHT22;61314;53.444;9.902;2022-07-21T06:37:59;19.00;99.90
3998;DHT22;61314;53.444;9.902;2022-07-21T06:40:26;18.90;99.90
3998;DHT22;61314;53.444;9.902;2022-07-21T06:42:53;19.00;99.90
3998;DHT22;61314;53.444;9.902;2022-07-21T06:45:40;19.00;99.90
3998;DHT22;61314;53.444;9.902;2022-07-21T06:48:08;19.00;99.90
3998;DHT22;61314;53.444;9.902;2022-07-21T06:50:36;19.00;99.90
3998;DHT22;61314;53.444;9.902;2022-07-21T06:53:03;19.00;99.90
3998;DHT22;61314;53.444;9.902;2022-07-21T06:55:31;19.00;99.90
3998;DHT22;61314;53.444;9.902;2022-07-21T06:58:08;19.10;99.90
3998;DHT22;61314;53.444;9.902;2022-07-21T07:00:35;19.10;99.90
3998;DHT22;61314;53.444;9.902;2022-07-21T07:03:02;19.10;99.90
3998;DHT22;61314;53.444;9.902;2022-07-21T07:05:29;19.10;99.90
3998;DHT22;61314;53.444;9.902;2022-07-21T07:07:57;19.20;99.90
3998;DHT22;61314;53.444;9.902;2022-07-21T07:10:25;19.20;99.90
3998;DHT22;61314;53.444;9.902;2022-07-21T07:12:52;19.10;99.90
3998;DHT22;61314;53.444;9.902;2022-07-21T07:15:39;19.20;99.90
3998;DHT22;61314;53.444;9.902;2022-07-21T07:18:06;19.10;99.90
3998;DHT22;61314;53.444;9.902;2022-07-21T07:20:33;19.10;99.90
3998;DHT22;61314;53.444;9.902;2022-07-21T07:23:00;19.20;99.90
3998;DHT22;61314;53.444;9.902;2022-07-21T07:25:27;19.10;99.90
3998;DHT22;61314;53.444;9.902;2022-07-21T07:27:57;19.20;99.90
3998;DHT22;61314;53.444;9.902;2022-07-21T07:30:24;19.20;99.90
3998;DHT22;61314;53.444;9.902;2022-07-21T07:32:52;19.20;99.90
3998;DHT22;61314;53.444;9.902;2022-07-21T07:35:22;19.30;99.90
3998;DHT22;61314;53.444;9.902;2022-07-21T07:37:49;19.30;99.90
3998;DHT22;61314;53.444;9.902;2022-07-21T07:40:18;19.40;99.90
3998;DHT22;61314;53.444;9.902;2022-07-21T07:42:46;19.40;99.90
3998;DHT22;61314;53.444;9.902;2022-07-21T07:45:14;19.40;99.90
3998;DHT22;61314;53.444;9.902;2022-07-21T07:47:41;19.50;99.90
3998;DHT22;61314;53.444;9.902;2022-07-21T07:50:12;19.60;99.90
3998;DHT22;61314;53.444;9.902;2022-07-21T07:52:40;19.60;99.90
3998;DHT22;61314;53.444;9.902;2022-07-21T07:55:08;19.70;99.90
3998;DHT22;61314;53.444;9.902;2022-07-21T07:57:41;19.80;99.90
3998;DHT22;61314;53.444;9.902;2022-07-21T08:00:12;19.90;99.90
3998;DHT22;61314;53.444;9.902;2022-07-21T08:02:59;19.90;99.90
3998;DHT22;61314;53.444;9.902;2022-07-21T08:05:26;19.90;99.90
3998;DHT22;61314;53.444;9.902;2022-07-21T08:07:53;20.00;99.90
3998;DHT22;61314;53.444;9.902;2022-07-21T08:10:20;20.00;99.90
3998;DHT22;61314;53.444;9.902;2022-07-21T08:13:07;20.10;99.90
3998;DHT22;61314;53.444;9.902;2022-07-21T08:15:36;20.20;99.90
3998;DHT22;61314;53.444;9.902;2022-07-21T08:18:03;20.30;99.90
3998;DHT22;61314;53.444;9.902;2022-07-21T08:20:30;20.40;99.90
3998;DHT22;61314;53.444;9.902;2022-07-21T08:22:57;20.50;99.90
3998;DHT22;61314;53.444;9.902;2022-07-21T08:25:24;20.60;99.90
3998;DHT22;61314;53.444;9.902;2022-07-21T08:27:51;20.70;99.90
3998;DHT22;61314;53.444;9.902;2022-07-21T08:30:18;20.80;99.90
3998;DHT22;61314;53.444;9.902;2022-07-21T08:32:50;20.90;99.90
3998;DHT22;61314;53.444;9.902;2022-07-21T08:35:16;21.00;99.90
3998;DHT22;61314;53.444;9.902;2022-07-21T08:37:58;21.10;99.90
3998;DHT22;61314;53.444;9.902;2022-07-21T08:40:27;21.20;99.90
3998;DHT22;61314;53.444;9.902;2022-07-21T08:42:55;21.30;99.90
3998;DHT22;61314;53.444;9.902;2022-07-21T08:45:22;21.30;99.90
3998;DHT22;61314;53.444;9.902;2022-07-21T08:47:54;21.40;99.90
3998;DHT22;61314;53.444;9.902;2022-07-21T08:50:27;21.40;99.90
3998;DHT22;61314;53.444;9.902;2022-07-21T08:52:54;21.50;99.90
3998;DHT22;61314;53.444;9.902;2022-07-21T08:55:34;21.50;99.90
3998;DHT22;61314;53.444;9.902;2022-07-21T08:58:02;21.60;99.90
3998;DHT22;61314;53.444;9.902;2022-07-21T09:00:32;21.70;99.90
3998;DHT22;61314;53.444;9.902;2022-07-21T09:05:39;21.80;99.90
3998;DHT22;61314;53.444;9.902;2022-07-21T09:08:07;22.00;99.90
3998;DHT22;61314;53.444;9.902;2022-07-21T09:10:34;22.00;99.90
3998;DHT22;61314;53.444;9.902;2022-07-21T09:13:03;22.20;99.90
3998;DHT22;61314;53.444;9.902;2022-07-21T09:15:32;22.20;99.90
3998;DHT22;61314;53.444;9.902;2022-07-21T09:18:13;22.30;99.90
3998;DHT22;61314;53.444;9.902;2022-07-21T09:20:50;22.30;99.90
3998;DHT22;61314;53.444;9.902;2022-07-21T09:23:20;22.30;99.90
3998;DHT22;61314;53.444;9.902;2022-07-21T09:25:55;22.40;99.90
3998;DHT22;61314;53.444;9.902;2022-07-21T09:28:27;22.40;99.90
3998;DHT22;61314;53.444;9.902;2022-07-21T09:31:07;22.40;99.90
3998;DHT22;61314;53.444;9.902;2022-07-21T09:33:46;22.40;99.90
3998;DHT22;61314;53.444;9.902;2022-07-21T09:36:17;22.40;99.90
3998;DHT22;61314;53.444;9.902;2022-07-21T09:41:20;22.50;99.90
3998;DHT22;61314;53.444;9.902;2022-07-21T09:46:24;22.70;99.90
3998;DHT22;61314;53.444;9.902;2022-07-21T09:48:54;22.90;99.90
3998;DHT22;61314;53.444;9.902;2022-07-21T09:51:41;23.00;99.90
3998;DHT22;61314;53.444;9.902;2022-07-21T09:54:11;23.10;99.90
3998;DHT22;61314;53.444;9.902;2022-07-21T09:56:43;23.10;99.90
3998;DHT22;61314;53.444;9.902;2022-07-21T09:59:12;23.20;99.90
3998;DHT22;61314;53.444;9.902;2022-07-21T10:01:39;23.30;99.90
3998;DHT22;61314;53.444;9.902;2022-07-21T10:04:07;23.30;99.90
3998;DHT22;61314;53.444;9.902;2022-07-21T10:06:37;23.40;99.90
3998;DHT22;61314;53.444;9.902;2022-07-21T10:09:07;23.50;99.90
3998;DHT22;61314;53.444;9.902;2022-07-21T10:11:40;23.60;99.90
3998;DHT22;61314;53.444;9.902;2022-07-21T10:14:12;23.60;99.90
3998;DHT22;61314;53.444;9.902;2022-07-21T10:16:39;23.60;99.90
3998;DHT22;61314;53.444;9.902;2022-07-21T10:22:04;23.60;99.90
3998;DHT22;61314;53.444;9.902;2022-07-21T10:24:34;23.70;99.90
3998;DHT22;61314;53.444;9.902;2022-07-21T10:27:05;24.00;99.90
3998;DHT22;61314;53.444;9.902;2022-07-21T10:29:49;24.20;99.90
3998;DHT22;61314;53.444;9.902;2022-07-21T10:32:21;24.40;99.90
3998;DHT22;61314;53.444;9.902;2022-07-21T10:34:48;23.70;99.90
3998;DHT22;61314;53.444;9.902;2022-07-21T10:45:40;25.60;99.90
3998;DHT22;61314;53.444;9.902;2022-07-21T10:50:58;26.20;99.90
3998;DHT22;61314;53.444;9.902;2022-07-21T10:53:24;26.30;99.90
3998;DHT22;61314;53.444;9.902;2022-07-21T10:55:53;26.40;99.90
3998;DHT22;61314;53.444;9.902;2022-07-21T11:03:36;26.70;99.90
3998;DHT22;61314;53.444;9.902;2022-07-21T11:11:26;26.50;99.90
3998;DHT22;61314;53.444;9.902;2022-07-21T11:14:04;26.50;99.90
3998;DHT22;61314;53.444;9.902;2022-07-21T11:22:17;26.20;99.90
3998;DHT22;61314;53.444;9.902;2022-07-21T11:24:58;26.10;99.90
3998;DHT22;61314;53.444;9.902;2022-07-21T11:27:31;26.20;99.90
3998;DHT22;61314;53.444;9.902;2022-07-21T11:30:00;26.20;99.90
3998;DHT22;61314;53.444;9.902;2022-07-21T11:32:28;26.30;99.90
3998;DHT22;61314;53.444;9.902;2022-07-21T11:34:57;26.30;99.90
3998;DHT22;61314;53.444;9.902;2022-07-21T11:37:33;26.40;99.90
3998;DHT22;61314;53.444;9.902;2022-07-21T11:42:36;26.50;99.90
3998;DHT22;61314;53.444;9.902;2022-07-21T11:45:05;26.50;99.90
3998;DHT22;61314;53.444;9.902;2022-07-21T11:47:33;26.50;99.90
3998;DHT22;61314;53.444;9.902;2022-07-21T11:50:05;26.50;99.90
3998;DHT22;61314;53.444;9.902;2022-07-21T11:52:35;26.50;99.90
3998;DHT22;61314;53.444;9.902;2022-07-21T11:55:05;26.70;99.90
3998;DHT22;61314;53.444;9.902;2022-07-21T11:57:33;26.80;99.90
3998;DHT22;61314;53.444;9.902;2022-07-21T12:00:00;26.90;99.90
3998;DHT22;61314;53.444;9.902;2022-07-21T12:02:29;26.80;99.90
3998;DHT22;61314;53.444;9.902;2022-07-21T12:05:02;26.90;99.90
3998;DHT22;61314;53.444;9.902;2022-07-21T12:10:10;26.90;99.90
3998;DHT22;61314;53.444;9.902;2022-07-21T12:12:40;27.00;99.90
3998;DHT22;61314;53.444;9.902;2022-07-21T12:15:14;27.30;99.90
3998;DHT22;61314;53.444;9.902;2022-07-21T12:17:48;27.50;99.90
3998;DHT22;61314;53.444;9.902;2022-07-21T12:20:27;27.50;99.90
3998;DHT22;61314;53.444;9.902;2022-07-21T12:22:55;27.60;99.90
3998;DHT22;61314;53.444;9.902;2022-07-21T12:25:32;27.70;99.90
3998;DHT22;61314;53.444;9.902;2022-07-21T12:28:00;27.90;99.90
3998;DHT22;61314;53.444;9.902;2022-07-21T12:33:20;28.20;99.90
3998;DHT22;61314;53.444;9.902;2022-07-21T12:36:08;28.20;99.90
3998;DHT22;61314;53.444;9.902;2022-07-21T12:38:44;28.40;99.90
3998;DHT22;61314;53.444;9.902;2022-07-21T12:41:14;28.40;99.90
3998;DHT22;61314;53.444;9.902;2022-07-21T12:43:56;28.40;99.90
3998;DHT22;61314;53.444;9.902;2022-07-21T12:46:31;28.40;99.90
3998;DHT22;61314;53.444;9.902;2022-07-21T12:49:08;28.70;99.90
3998;DHT22;61314;53.444;9.902;2022-07-21T12:51:41;28.70;99.90
3998;DHT22;61314;53.444;9.902;2022-07-21T12:54:09;28.90;99.90
3998;DHT22;61314;53.444;9.902;2022-07-21T12:56:37;29.00;99.90
3998;DHT22;61314;53.444;9.902;2022-07-21T12:59:04;29.00;99.90
3998;DHT22;61314;53.444;9.902;2022-07-21T13:01:32;29.00;99.90
3998;DHT22;61314;53.444;9.902;2022-07-21T13:04:01;29.10;99.90
3998;DHT22;61314;53.444;9.902;2022-07-21T13:06:28;29.00;99.90
3998;DHT22;61314;53.444;9.902;2022-07-21T13:08:56;29.00;99.90
3998;DHT22;61314;53.444;9.902;2022-07-21T13:11:23;28.90;99.90
3998;DHT22;61314;53.444;9.902;2022-07-21T13:13:51;29.00;99.90
3998;DHT22;61314;53.444;9.902;2022-07-21T13:16:19;28.90;99.90
3998;DHT22;61314;53.444;9.902;2022-07-21T13:18:49;28.80;99.90
3998;DHT22;61314;53.444;9.902;2022-07-21T13:21:17;28.70;99.90
3998;DHT22;61314;53.444;9.902;2022-07-21T13:23:44;28.70;99.90
3998;DHT22;61314;53.444;9.902;2022-07-21T13:26:11;28.70;99.90
3998;DHT22;61314;53.444;9.902;2022-07-21T13:28:37;28.60;99.90
3998;DHT22;61314;53.444;9.902;2022-07-21T13:31:05;28.70;99.90
3998;DHT22;61314;53.444;9.902;2022-07-21T13:33:34;28.90;99.90
3998;DHT22;61314;53.444;9.902;2022-07-21T13:36:07;28.90;99.90
3998;DHT22;61314;53.444;9.902;2022-07-21T13:38:34;29.00;99.90
3998;DHT22;61314;53.444;9.902;2022-07-21T13:41:01;29.00;99.90
3998;DHT22;61314;53.444;9.902;2022-07-21T13:43:48;29.00;99.90
3998;DHT22;61314;53.444;9.902;2022-07-21T13:46:15;29.10;99.90
3998;DHT22;61314;53.444;9.902;2022-07-21T13:48:42;29.30;99.90
3998;DHT22;61314;53.444;9.902;2022-07-21T13:51:12;29.30;99.90
3998;DHT22;61314;53.444;9.902;2022-07-21T13:53:39;29.50;99.90
3998;DHT22;61314;53.444;9.902;2022-07-21T13:56:07;29.50;99.90
3998;DHT22;61314;53.444;9.902;2022-07-21T13:58:34;29.40;99.90
3998;DHT22;61314;53.444;9.902;2022-07-21T14:01:01;29.40;99.90
3998;DHT22;61314;53.444;9.902;2022-07-21T14:03:28;29.30;99.90
3998;DHT22;61314;53.444;9.902;2022-07-21T14:05:55;29.30;99.90
3998;DHT22;61314;53.444;9.902;2022-07-21T14:08:22;29.30;99.90
3998;DHT22;61314;53.444;9.902;2022-07-21T14:10:48;29.40;99.90
3998;DHT22;61314;53.444;9.902;2022-07-21T14:13:15;29.50;99.90
3998;DHT22;61314;53.444;9.902;2022-07-21T14:15:42;29.60;99.90
3998;DHT22;61314;53.444;9.902;2022-07-21T14:18:09;29.70;99.90
3998;DHT22;61314;53.444;9.902;2022-07-21T14:20:37;29.70;99.90
3998;DHT22;61314;53.444;9.902;2022-07-21T14:23:04;29.60;99.90
3998;DHT22;61314;53.444;9.902;2022-07-21T14:25:31;29.60;99.90
3998;DHT22;61314;53.444;9.902;2022-07-21T14:27:59;29.50;99.90
3998;DHT22;61314;53.444;9.902;2022-07-21T14:30:28;29.40;99.90
3998;DHT22;61314;53.444;9.902;2022-07-21T14:32:55;29.20;99.90
3998;DHT22;61314;53.444;9.902;2022-07-21T14:35:22;29.10;99.90
3998;DHT22;61314;53.444;9.902;2022-07-21T14:37:50;28.80;99.90
3998;DHT22;61314;53.444;9.902;2022-07-21T14:40:18;28.60;99.90
3998;DHT22;61314;53.444;9.902;2022-07-21T14:42:47;28.50;99.90
3998;DHT22;61314;53.444;9.902;2022-07-21T14:45:15;28.40;99.90
3998;DHT22;61314;53.444;9.902;2022-07-21T14:47:49;28.10;99.90
3998;DHT22;61314;53.444;9.902;2022-07-21T14:50:16;27.90;99.90
3998;DHT22;61314;53.444;9.902;2022-07-21T14:52:52;27.70;99.90
3998;DHT22;61314;53.444;9.902;2022-07-21T14:55:19;27.40;99.90
3998;DHT22;61314;53.444;9.902;2022-07-21T14:57:49;27.20;99.90
3998;DHT22;61314;53.444;9.902;2022-07-21T15:00:17;27.00;99.90
3998;DHT22;61314;53.444;9.902;2022-07-21T15:02:44;26.80;99.90
3998;DHT22;61314;53.444;9.902;2022-07-21T15:05:11;26.70;99.90
3998;DHT22;61314;53.444;9.902;2022-07-21T15:07:39;26.50;99.90
3998;DHT22;61314;53.444;9.902;2022-07-21T15:10:07;26.20;99.90
3998;DHT22;61314;53.444;9.902;2022-07-21T15:12:34;25.90;99.90
3998;DHT22;61314;53.444;9.902;2022-07-21T15:15:01;25.70;99.90
3998;DHT22;61314;53.444;9.902;2022-07-21T15:17:28;25.50;99.90
3998;DHT22;61314;53.444;9.902;2022-07-21T15:19:56;25.40;99.90
3998;DHT22;61314;53.444;9.902;2022-07-21T15:22:26;25.20;99.90
3998;DHT22;61314;53.444;9.902;2022-07-21T15:24:59;25.00;99.90
3998;DHT22;61314;53.444;9.902;2022-07-21T15:27:26;24.90;99.90
3998;DHT22;61314;53.444;9.902;2022-07-21T15:29:54;24.80;99.90
3998;DHT22;61314;53.444;9.902;2022-07-21T15:32:21;24.40;99.90
3998;DHT22;61314;53.444;9.902;2022-07-21T15:34:48;24.40;99.90
3998;DHT22;61314;53.444;9.902;2022-07-21T15:37:15;24.20;99.90
3998;DHT22;61314;53.444;9.902;2022-07-21T15:42:12;24.00;99.90
3998;DHT22;61314;53.444;9.902;2022-07-21T15:44:39;23.90;99.90
3998;DHT22;61314;53.444;9.902;2022-07-21T15:47:07;23.80;99.90
3998;DHT22;61314;53.444;9.902;2022-07-21T15:49:34;23.80;99.90
3998;DHT22;61314;53.444;9.902;2022-07-21T15:52:02;23.70;99.90
3998;DHT22;61314;53.444;9.902;2022-07-21T15:54:30;23.60;99.90
3998;DHT22;61314;53.444;9.902;2022-07-21T15:57:17;23.70;99.90
3998;DHT22;61314;53.444;9.902;2022-07-21T15:59:43;23.50;99.90
3998;DHT22;61314;53.444;9.902;2022-07-21T16:02:13;23.50;99.90
3998;DHT22;61314;53.444;9.902;2022-07-21T16:04:43;23.50;99.90
3998;DHT22;61314;53.444;9.902;2022-07-21T16:07:11;23.50;99.90
3998;DHT22;61314;53.444;9.902;2022-07-21T16:09:39;23.50;99.90
3998;DHT22;61314;53.444;9.902;2022-07-21T16:12:07;23.50;99.90
3998;DHT22;61314;53.444;9.902;2022-07-21T16:14:34;23.50;99.90
3998;DHT22;61314;53.444;9.902;2022-07-21T16:17:02;23.50;99.90
3998;DHT22;61314;53.444;9.902;2022-07-21T16:19:29;23.50;99.90
3998;DHT22;61314;53.444;9.902;2022-07-21T16:21:57;23.50;99.90
3998;DHT22;61314;53.444;9.902;2022-07-21T16:24:24;23.60;99.90
3998;DHT22;61314;53.444;9.902;2022-07-21T16:26:51;23.60;99.90
3998;DHT22;61314;53.444;9.902;2022-07-21T16:29:19;23.60;99.90
3998;DHT22;61314;53.444;9.902;2022-07-21T16:31:46;23.50;99.90
3998;DHT22;61314;53.444;9.902;2022-07-21T16:34:13;23.50;99.90
3998;DHT22;61314;53.444;9.902;2022-07-21T16:36:40;23.50;99.90
3998;DHT22;61314;53.444;9.902;2022-07-21T16:39:07;23.50;99.90
3998;DHT22;61314;53.444;9.902;2022-07-21T16:41:34;23.40;99.90
3998;DHT22;61314;53.444;9.902;2022-07-21T16:44:02;23.30;99.90
3998;DHT22;61314;53.444;9.902;2022-07-21T16:46:31;23.30;99.90
3998;DHT22;61314;53.444;9.902;2022-07-21T16:48:58;23.20;99.90
3998;DHT22;61314;53.444;9.902;2022-07-21T16:51:25;23.20;99.90